createdAt,value
2016-05-24T00:00:04.620Z,99.7
2016-05-24T00:00:14.607Z,99.9
2016-05-24T00:00:24.591Z,99.7
2016-05-24T00:00:34.576Z,99.9
2016-05-24T00:00:44.560Z,100
2016-05-24T00:00:54.560Z,100
2016-05-24T00:01:04.545Z,100
2016-05-24T00:01:14.531Z,99.9
2016-05-24T00:01:24.515Z,100
2016-05-24T00:01:34.922Z,100
2016-05-24T00:01:44.500Z,100
2016-05-24T00:01:54.781Z,100
2016-05-24T00:02:04.562Z,100
2016-05-24T00:02:14.457Z,100
2016-05-24T00:02:24.441Z,100
2016-05-24T00:02:34.457Z,100
2016-05-24T00:02:44.426Z,100
2016-05-24T00:02:54.410Z,100
2016-05-24T00:03:04.394Z,100
2016-05-24T00:03:14.396Z,100
2016-05-24T00:03:24.381Z,100
2016-05-24T00:03:34.365Z,100
2016-05-24T00:03:44.349Z,100
2016-05-24T00:03:54.349Z,100
2016-05-24T00:04:04.334Z,100
2016-05-24T00:04:14.321Z,100
2016-05-24T00:04:24.306Z,100
2016-05-24T00:04:34.290Z,100
2016-05-24T00:04:44.274Z,100
2016-05-24T00:04:54.274Z,100
2016-05-24T00:05:04.259Z,100
2016-05-24T00:05:14.245Z,100
2016-05-24T00:05:24.229Z,100
2016-05-24T00:05:34.229Z,100
2016-05-24T00:05:44.214Z,100
2016-05-24T00:05:54.198Z,100
2016-05-24T00:06:04.183Z,100
2016-05-24T00:06:14.186Z,100
2016-05-24T00:06:24.170Z,100
2016-05-24T00:06:34.154Z,100
2016-05-24T00:06:44.139Z,99.9
2016-05-24T00:06:54.123Z,99.9
2016-05-24T00:07:04.123Z,100
2016-05-24T00:07:14.109Z,100
2016-05-24T00:07:24.094Z,100
2016-05-24T00:07:34.078Z,99.9
2016-05-24T00:07:44.078Z,100
2016-05-24T00:07:54.078Z,100
2016-05-24T00:08:04.047Z,100
2016-05-24T00:08:14.034Z,100
2016-05-24T00:08:24.034Z,99.6
2016-05-24T00:08:34.003Z,99.9
2016-05-24T00:08:43.987Z,99.6
2016-05-24T00:08:53.987Z,99.8
2016-05-24T00:09:03.972Z,99.7
2016-05-24T00:09:13.959Z,99.9
2016-05-24T00:09:23.959Z,99.7
2016-05-24T00:09:33.944Z,99.9
2016-05-24T00:09:43.928Z,99.9
2016-05-24T00:09:53.912Z,99.5
2016-05-24T00:10:03.897Z,100
2016-05-24T00:10:13.900Z,100
2016-05-24T00:10:23.884Z,100
2016-05-24T00:10:33.868Z,100
2016-05-24T00:10:43.853Z,100
2016-05-24T00:10:53.837Z,100
2016-05-24T00:11:03.837Z,100
2016-05-24T00:11:13.824Z,100
2016-05-24T00:11:23.808Z,100
2016-05-24T00:11:33.792Z,100
2016-05-24T00:11:43.792Z,99.9
2016-05-24T00:11:53.777Z,100
2016-05-24T00:12:03.761Z,100
2016-05-24T00:12:13.748Z,100
2016-05-24T00:12:23.733Z,100
2016-05-24T00:12:33.733Z,100
2016-05-24T00:12:43.717Z,100
2016-05-24T00:12:53.702Z,100
2016-05-24T00:13:03.686Z,100
2016-05-24T00:13:13.689Z,100
2016-05-24T00:13:23.673Z,100
2016-05-24T00:13:33.658Z,100
2016-05-24T00:13:43.642Z,100
2016-05-24T00:13:53.626Z,100
2016-05-24T00:14:03.626Z,100
2016-05-24T00:14:13.644Z,100
2016-05-24T00:14:23.597Z,100
2016-05-24T00:14:33.722Z,100
2016-05-24T00:14:43.582Z,100
2016-05-24T00:14:53.566Z,100
2016-05-24T00:15:03.847Z,100
2016-05-24T00:15:13.538Z,100
2016-05-24T00:15:23.522Z,100
2016-05-24T00:15:33.506Z,100
2016-05-24T00:15:43.506Z,100
2016-05-24T00:15:53.491Z,100
2016-05-24T00:16:03.475Z,100
2016-05-24T00:16:13.463Z,100
2016-05-24T00:16:23.447Z,100
2016-05-24T00:16:33.447Z,100
2016-05-24T00:16:43.431Z,100
2016-05-24T00:16:53.416Z,100
2016-05-24T00:17:03.400Z,100
2016-05-24T00:17:13.403Z,100
2016-05-24T00:17:23.387Z,100
2016-05-24T00:17:33.372Z,100
2016-05-24T00:17:43.356Z,100
2016-05-24T00:17:53.356Z,100
2016-05-24T00:18:03.341Z,100
2016-05-24T00:18:13.327Z,100
2016-05-24T00:18:23.311Z,100
2016-05-24T00:18:33.296Z,100
2016-05-24T00:18:43.296Z,100
2016-05-24T00:18:53.280Z,100
2016-05-24T00:19:03.264Z,100
2016-05-24T00:19:13.252Z,100
2016-05-24T00:19:23.236Z,100
2016-05-24T00:19:33.236Z,100
2016-05-24T00:19:43.221Z,100
2016-05-24T00:19:53.205Z,100
2016-05-24T00:20:03.189Z,100
2016-05-24T00:20:13.192Z,100
2016-05-24T00:20:23.177Z,99.9
2016-05-24T00:20:33.161Z,99.6
2016-05-24T00:20:43.145Z,99.9
2016-05-24T00:20:53.130Z,99.9
2016-05-24T00:21:03.130Z,100
2016-05-24T00:21:13.117Z,100
2016-05-24T00:21:23.102Z,100
2016-05-24T00:21:33.086Z,100
2016-05-24T00:21:43.070Z,100
2016-05-24T00:21:53.086Z,100
2016-05-24T00:22:03.055Z,100
2016-05-24T00:22:13.041Z,100
2016-05-24T00:22:23.025Z,100
2016-05-24T00:22:33.025Z,100
2016-05-24T00:22:43.010Z,100
2016-05-24T00:22:52.994Z,100
2016-05-24T00:23:02.979Z,100
2016-05-24T00:23:12.966Z,100
2016-05-24T00:23:22.950Z,100
2016-05-24T00:23:32.950Z,100
2016-05-24T00:23:42.935Z,100
2016-05-24T00:23:52.919Z,100
2016-05-24T00:24:02.919Z,100
2016-05-24T00:24:12.905Z,100
2016-05-24T00:24:22.890Z,100
2016-05-24T00:24:32.874Z,100
2016-05-24T00:24:42.859Z,100
2016-05-24T00:24:52.859Z,100
2016-05-24T00:25:02.843Z,100
2016-05-24T00:25:12.830Z,100
2016-05-24T00:25:22.815Z,100
2016-05-24T00:25:32.799Z,100
2016-05-24T00:25:42.799Z,100
2016-05-24T00:25:52.783Z,100
2016-05-24T00:26:02.768Z,100
2016-05-24T00:26:12.754Z,100
2016-05-24T00:26:22.739Z,100
2016-05-24T00:26:32.739Z,100
2016-05-24T00:26:42.723Z,100
2016-05-24T00:26:52.707Z,100
2016-05-24T00:27:02.692Z,100
2016-05-24T00:27:12.696Z,100
2016-05-24T00:27:22.680Z,100
2016-05-24T00:27:32.664Z,100
2016-05-24T00:27:42.649Z,100
2016-05-24T00:27:52.633Z,100
2016-05-24T00:28:02.633Z,100
2016-05-24T00:28:12.620Z,100
2016-05-24T00:28:22.604Z,100
2016-05-24T00:28:32.588Z,100
2016-05-24T00:28:42.588Z,100
2016-05-24T00:28:52.573Z,100
2016-05-24T00:29:02.557Z,100
2016-05-24T00:29:12.544Z,100
2016-05-24T00:29:22.544Z,100
2016-05-24T00:29:32.513Z,100
2016-05-24T00:29:42.513Z,100
2016-05-24T00:29:53.044Z,100
2016-05-24T00:30:02.529Z,100
2016-05-24T00:30:12.468Z,100
2016-05-24T00:30:22.468Z,100
2016-05-24T00:30:32.453Z,100
2016-05-24T00:30:42.437Z,100
2016-05-24T00:30:52.421Z,100
2016-05-24T00:31:02.421Z,100
2016-05-24T00:31:12.410Z,100
2016-05-24T00:31:22.394Z,100
2016-05-24T00:31:32.379Z,100
2016-05-24T00:31:42.363Z,100
2016-05-24T00:31:52.363Z,100
2016-05-24T00:32:02.347Z,100
2016-05-24T00:32:12.334Z,100
2016-05-24T00:32:22.318Z,100
2016-05-24T00:32:32.318Z,100
2016-05-24T00:32:42.302Z,100
2016-05-24T00:32:52.287Z,100
2016-05-24T00:33:02.271Z,100
2016-05-24T00:33:12.259Z,100
2016-05-24T00:33:22.243Z,100
2016-05-24T00:33:32.243Z,100
2016-05-24T00:33:42.227Z,100
2016-05-24T00:33:52.212Z,100
2016-05-24T00:34:02.196Z,100
2016-05-24T00:34:12.198Z,100
2016-05-24T00:34:22.182Z,100
2016-05-24T00:34:32.167Z,100
2016-05-24T00:34:42.151Z,100
2016-05-24T00:34:52.136Z,100
2016-05-24T00:35:02.136Z,100
2016-05-24T00:35:12.123Z,100
2016-05-24T00:35:22.107Z,100
2016-05-24T00:35:32.092Z,100
2016-05-24T00:35:42.076Z,100
2016-05-24T00:35:52.076Z,100
2016-05-24T00:36:02.060Z,100
2016-05-24T00:36:12.047Z,100
2016-05-24T00:36:22.031Z,100
2016-05-24T00:36:32.031Z,100
2016-05-24T00:36:42.016Z,100
2016-05-24T00:36:52.000Z,100
2016-05-24T00:37:01.984Z,100
2016-05-24T00:37:11.987Z,100
2016-05-24T00:37:21.972Z,100
2016-05-24T00:37:31.956Z,100
2016-05-24T00:37:41.940Z,100
2016-05-24T00:37:51.925Z,100
2016-05-24T00:38:01.909Z,100
2016-05-24T00:38:11.912Z,100
2016-05-24T00:38:21.897Z,100
2016-05-24T00:38:31.881Z,100
2016-05-24T00:38:41.865Z,100
2016-05-24T00:38:51.865Z,100
2016-05-24T00:39:01.850Z,100
2016-05-24T00:39:11.837Z,100
2016-05-24T00:39:21.821Z,100
2016-05-24T00:39:31.806Z,100
2016-05-24T00:39:41.806Z,100
2016-05-24T00:39:51.790Z,100
2016-05-24T00:40:01.775Z,100
2016-05-24T00:40:11.762Z,100
2016-05-24T00:40:21.762Z,100
2016-05-24T00:40:31.746Z,100
2016-05-24T00:40:41.731Z,100
2016-05-24T00:40:51.715Z,100
2016-05-24T00:41:01.699Z,100
2016-05-24T00:41:11.686Z,100
2016-05-24T00:41:21.686Z,100
2016-05-24T00:41:31.670Z,100
2016-05-24T00:41:41.655Z,100
2016-05-24T00:41:51.655Z,100
2016-05-24T00:42:01.639Z,100
2016-05-24T00:42:11.626Z,100
2016-05-24T00:42:21.611Z,100
2016-05-24T00:42:31.611Z,100
2016-05-24T00:42:41.579Z,100
2016-05-24T00:42:51.579Z,100
2016-05-24T00:43:01.564Z,100
2016-05-24T00:43:11.550Z,100
2016-05-24T00:43:21.535Z,100
2016-05-24T00:43:31.535Z,100
2016-05-24T00:43:41.519Z,100
2016-05-24T00:43:51.503Z,100
2016-05-24T00:44:01.488Z,100
2016-05-24T00:44:11.475Z,100
2016-05-24T00:44:21.475Z,100
2016-05-24T00:44:31.459Z,100
2016-05-24T00:44:41.475Z,100
2016-05-24T00:44:51.428Z,100
2016-05-24T00:45:01.428Z,100
2016-05-24T00:45:11.416Z,100
2016-05-24T00:45:21.400Z,100
2016-05-24T00:45:31.384Z,100
2016-05-24T00:45:41.369Z,100
2016-05-24T00:45:51.369Z,100
2016-05-24T00:46:01.353Z,100
2016-05-24T00:46:11.340Z,100
2016-05-24T00:46:21.325Z,100
2016-05-24T00:46:31.325Z,100
2016-05-24T00:46:41.309Z,100
2016-05-24T00:46:51.294Z,100
2016-05-24T00:47:01.278Z,100
2016-05-24T00:47:11.264Z,100
2016-05-24T00:47:21.249Z,100
2016-05-24T00:47:31.249Z,100
2016-05-24T00:47:41.233Z,100
2016-05-24T00:47:51.217Z,100
2016-05-24T00:48:01.202Z,100
2016-05-24T00:48:11.205Z,100
2016-05-24T00:48:21.189Z,100
2016-05-24T00:48:31.174Z,100
2016-05-24T00:48:41.174Z,100
2016-05-24T00:48:51.142Z,100
2016-05-24T00:49:01.142Z,100
2016-05-24T00:49:11.130Z,100
2016-05-24T00:49:21.114Z,100
2016-05-24T00:49:31.098Z,100
2016-05-24T00:49:41.083Z,100
2016-05-24T00:49:51.083Z,100
2016-05-24T00:50:01.067Z,100
2016-05-24T00:50:11.055Z,100
2016-05-24T00:50:21.039Z,100
2016-05-24T00:50:31.039Z,100
2016-05-24T00:50:41.023Z,100
2016-05-24T00:50:51.008Z,100
2016-05-24T00:51:00.992Z,100
2016-05-24T00:51:10.978Z,100
2016-05-24T00:51:20.978Z,100
2016-05-24T00:51:30.963Z,100
2016-05-24T00:51:40.947Z,100
2016-05-24T00:51:50.932Z,100
2016-05-24T00:52:00.916Z,100
2016-05-24T00:52:10.919Z,100
2016-05-24T00:52:20.903Z,100
2016-05-24T00:52:30.888Z,100
2016-05-24T00:52:40.872Z,100
2016-05-24T00:52:50.872Z,100
2016-05-24T00:53:00.856Z,100
2016-05-24T00:53:10.843Z,100
2016-05-24T00:53:20.827Z,100
2016-05-24T00:53:30.812Z,100
2016-05-24T00:53:40.812Z,100
2016-05-24T00:53:50.796Z,100
2016-05-24T00:54:00.780Z,100
2016-05-24T00:54:10.768Z,100
2016-05-24T00:54:20.752Z,100
2016-05-24T00:54:30.752Z,100
2016-05-24T00:54:40.736Z,100
2016-05-24T00:54:50.721Z,100
2016-05-24T00:55:00.705Z,100
2016-05-24T00:55:10.693Z,100
2016-05-24T00:55:20.693Z,100
2016-05-24T00:55:30.677Z,100
2016-05-24T00:55:40.661Z,100
2016-05-24T00:55:50.646Z,100
2016-05-24T00:56:00.630Z,100
2016-05-24T00:56:10.633Z,100
2016-05-24T00:56:20.617Z,100
2016-05-24T00:56:30.602Z,100
2016-05-24T00:56:40.586Z,100
2016-05-24T00:56:50.586Z,100
2016-05-24T00:57:00.571Z,100
2016-05-24T00:57:10.557Z,100
2016-05-24T00:57:20.541Z,100
2016-05-24T00:57:30.541Z,100
2016-05-24T00:57:40.526Z,100
2016-05-24T00:57:50.510Z,100
2016-05-24T00:58:00.494Z,100
2016-05-24T00:58:10.482Z,100
2016-05-24T00:58:20.482Z,100
2016-05-24T00:58:30.466Z,100
2016-05-24T00:58:40.451Z,100
2016-05-24T00:58:50.435Z,100
2016-05-24T00:59:00.419Z,100
2016-05-24T00:59:10.421Z,100
2016-05-24T00:59:20.624Z,100
2016-05-24T00:59:30.390Z,100
2016-05-24T00:59:40.374Z,100
2016-05-24T00:59:50.374Z,100
2016-05-24T01:00:00.359Z,100
2016-05-24T01:00:10.357Z,100
2016-05-24T01:00:20.342Z,100
2016-05-24T01:00:30.326Z,100
2016-05-24T01:00:40.310Z,100
2016-05-24T01:00:50.310Z,100
2016-05-24T01:01:00.295Z,100
2016-05-24T01:01:10.326Z,100
2016-05-24T01:01:20.310Z,100
2016-05-24T01:01:30.294Z,100
2016-05-24T01:01:40.279Z,100
2016-05-24T01:01:50.263Z,100
2016-05-24T01:02:00.248Z,100
2016-05-24T01:02:10.263Z,100
2016-05-24T01:02:20.263Z,100
2016-05-24T01:02:30.247Z,100
2016-05-24T01:02:40.232Z,100
2016-05-24T01:02:50.232Z,100
2016-05-24T01:03:00.216Z,100
2016-05-24T01:03:10.232Z,100
2016-05-24T01:03:20.217Z,100
2016-05-24T01:03:30.201Z,100
2016-05-24T01:03:40.201Z,100
2016-05-24T01:03:50.186Z,100
2016-05-24T01:04:00.170Z,100
2016-05-24T01:04:10.184Z,100
2016-05-24T01:04:20.169Z,100
2016-05-24T01:04:30.153Z,100
2016-05-24T01:04:40.153Z,100
2016-05-24T01:04:50.137Z,100
2016-05-24T01:05:00.122Z,100
2016-05-24T01:05:10.130Z,100
2016-05-24T01:05:20.130Z,100
2016-05-24T01:05:30.115Z,100
2016-05-24T01:05:40.099Z,100
2016-05-24T01:05:50.083Z,100
2016-05-24T01:06:00.068Z,100
2016-05-24T01:06:10.065Z,100
2016-05-24T01:06:20.065Z,100
2016-05-24T01:06:30.049Z,100
2016-05-24T01:06:40.034Z,100
2016-05-24T01:06:50.034Z,100
2016-05-24T01:07:00.018Z,100
2016-05-24T01:07:10.015Z,100
2016-05-24T01:07:19.999Z,100
2016-05-24T01:07:29.999Z,100
2016-05-24T01:07:39.983Z,100
2016-05-24T01:07:49.968Z,100
2016-05-24T01:07:59.952Z,100
2016-05-24T01:08:09.950Z,100
2016-05-24T01:08:19.935Z,100
2016-05-24T01:08:29.935Z,100
2016-05-24T01:08:39.919Z,100
2016-05-24T01:08:49.904Z,100
2016-05-24T01:08:59.888Z,100
2016-05-24T01:09:09.885Z,100
2016-05-24T01:09:19.885Z,100
2016-05-24T01:09:29.870Z,100
2016-05-24T01:09:39.854Z,100
2016-05-24T01:09:49.838Z,100
2016-05-24T01:09:59.838Z,100
2016-05-24T01:10:09.833Z,100
2016-05-24T01:10:19.817Z,100
2016-05-24T01:10:29.802Z,100
2016-05-24T01:10:39.802Z,100
2016-05-24T01:10:49.786Z,100
2016-05-24T01:10:59.770Z,100
2016-05-24T01:11:09.761Z,100
2016-05-24T01:11:19.745Z,100
2016-05-24T01:11:29.745Z,100
2016-05-24T01:11:39.714Z,100
2016-05-24T01:11:49.714Z,100
2016-05-24T01:11:59.698Z,100
2016-05-24T01:12:09.690Z,100
2016-05-24T01:12:19.690Z,100
2016-05-24T01:12:29.674Z,100
2016-05-24T01:12:39.658Z,100
2016-05-24T01:12:49.643Z,100
2016-05-24T01:12:59.643Z,100
2016-05-24T01:13:09.617Z,100
2016-05-24T01:13:19.617Z,100
2016-05-24T01:13:29.602Z,100
2016-05-24T01:13:39.602Z,100
2016-05-24T01:13:49.571Z,100
2016-05-24T01:13:59.555Z,100
2016-05-24T01:14:09.562Z,100
2016-05-24T01:14:19.546Z,100
2016-05-24T01:14:30.046Z,100
2016-05-24T01:14:39.531Z,100
2016-05-24T01:14:49.515Z,100
2016-05-24T01:14:59.546Z,100
2016-05-24T01:15:09.490Z,100
2016-05-24T01:15:19.474Z,100
2016-05-24T01:15:29.459Z,100
2016-05-24T01:15:39.459Z,100
2016-05-24T01:15:49.443Z,100
2016-05-24T01:15:59.443Z,100
2016-05-24T01:16:09.415Z,100
2016-05-24T01:16:19.415Z,100
2016-05-24T01:16:29.399Z,100
2016-05-24T01:16:39.383Z,100
2016-05-24T01:16:49.368Z,100
2016-05-24T01:16:59.368Z,100
2016-05-24T01:17:09.356Z,100
2016-05-24T01:17:19.341Z,100
2016-05-24T01:17:29.325Z,100
2016-05-24T01:17:39.309Z,100
2016-05-24T01:17:49.309Z,100
2016-05-24T01:17:59.294Z,100
2016-05-24T01:18:09.282Z,100
2016-05-24T01:18:19.266Z,100
2016-05-24T01:18:29.251Z,100
2016-05-24T01:18:39.251Z,100
2016-05-24T01:18:49.235Z,100
2016-05-24T01:18:59.220Z,100
2016-05-24T01:19:09.204Z,100
2016-05-24T01:19:19.191Z,100
2016-05-24T01:19:29.191Z,100
2016-05-24T01:19:39.176Z,100
2016-05-24T01:19:49.160Z,100
2016-05-24T01:19:59.144Z,100
2016-05-24T01:20:09.144Z,100
2016-05-24T01:20:19.133Z,100
2016-05-24T01:20:29.117Z,100
2016-05-24T01:20:39.102Z,100
2016-05-24T01:20:49.086Z,100
2016-05-24T01:20:59.086Z,100
2016-05-24T01:21:09.070Z,100
2016-05-24T01:21:19.059Z,100
2016-05-24T01:21:29.043Z,100
2016-05-24T01:21:39.027Z,100
2016-05-24T01:21:49.012Z,100
2016-05-24T01:21:59.012Z,100
2016-05-24T01:22:08.996Z,100
2016-05-24T01:22:18.983Z,100
2016-05-24T01:22:28.967Z,100
2016-05-24T01:22:38.951Z,100
2016-05-24T01:22:48.951Z,100
2016-05-24T01:22:58.936Z,100
2016-05-24T01:23:08.920Z,100
2016-05-24T01:23:18.908Z,100
2016-05-24T01:23:28.908Z,100
2016-05-24T01:23:38.893Z,100
2016-05-24T01:23:48.877Z,100
2016-05-24T01:23:58.862Z,100
2016-05-24T01:24:08.862Z,100
2016-05-24T01:24:18.848Z,100
2016-05-24T01:24:28.832Z,100
2016-05-24T01:24:38.817Z,100
2016-05-24T01:24:48.817Z,100
2016-05-24T01:24:58.785Z,100
2016-05-24T01:25:08.785Z,100
2016-05-24T01:25:18.774Z,100
2016-05-24T01:25:28.758Z,100
2016-05-24T01:25:38.743Z,100
2016-05-24T01:25:48.743Z,100
2016-05-24T01:25:58.727Z,100
2016-05-24T01:26:08.711Z,100
2016-05-24T01:26:18.698Z,100
2016-05-24T01:26:28.682Z,100
2016-05-24T01:26:38.682Z,100
2016-05-24T01:26:48.666Z,100
2016-05-24T01:26:58.651Z,100
2016-05-24T01:27:08.635Z,100
2016-05-24T01:27:18.639Z,100
2016-05-24T01:27:28.624Z,100
2016-05-24T01:27:38.608Z,100
2016-05-24T01:27:48.592Z,100
2016-05-24T01:27:58.577Z,100
2016-05-24T01:28:08.577Z,100
2016-05-24T01:28:18.563Z,100
2016-05-24T01:28:28.547Z,100
2016-05-24T01:28:38.532Z,100
2016-05-24T01:28:48.516Z,100
2016-05-24T01:28:58.516Z,100
2016-05-24T01:29:08.501Z,99.7
2016-05-24T01:29:18.489Z,99.2
2016-05-24T01:29:28.473Z,99
2016-05-24T01:29:38.458Z,98.8
2016-05-24T01:29:48.458Z,99
2016-05-24T01:29:58.442Z,99.4
2016-05-24T01:30:08.426Z,99.4
2016-05-24T01:30:18.413Z,99.6
2016-05-24T01:30:28.413Z,99.8
2016-05-24T01:30:38.397Z,99.8
2016-05-24T01:30:48.382Z,99.9
2016-05-24T01:30:58.366Z,100
2016-05-24T01:31:08.366Z,99.6
2016-05-24T01:31:18.354Z,99.4
2016-05-24T01:31:28.339Z,99.2
2016-05-24T01:31:38.323Z,99
2016-05-24T01:31:48.307Z,98.6
2016-05-24T01:31:58.292Z,98.9
2016-05-24T01:32:08.292Z,98.4
2016-05-24T01:32:18.279Z,98.2
2016-05-24T01:32:28.264Z,98.6
2016-05-24T01:32:38.248Z,99.3
2016-05-24T01:32:48.232Z,99.3
2016-05-24T01:32:58.248Z,99.4
2016-05-24T01:33:08.217Z,99
2016-05-24T01:33:18.219Z,99.3
2016-05-24T01:33:28.187Z,99.6
2016-05-24T01:33:38.187Z,99.6
2016-05-24T01:33:48.172Z,99.5
2016-05-24T01:33:58.156Z,99.9
2016-05-24T01:34:08.141Z,100
2016-05-24T01:34:18.127Z,99.7
2016-05-24T01:34:28.127Z,99.6
2016-05-24T01:34:38.111Z,100
2016-05-24T01:34:48.096Z,100
2016-05-24T01:34:58.080Z,100
2016-05-24T01:35:08.064Z,100
2016-05-24T01:35:18.067Z,99.9
2016-05-24T01:35:28.052Z,100
2016-05-24T01:35:38.036Z,100
2016-05-24T01:35:48.021Z,100
2016-05-24T01:35:58.005Z,100
2016-05-24T01:36:08.005Z,99.9
2016-05-24T01:36:17.991Z,99.8
2016-05-24T01:36:27.976Z,100
2016-05-24T01:36:37.976Z,100
2016-05-24T01:36:47.960Z,100
2016-05-24T01:36:57.944Z,100
2016-05-24T01:37:07.929Z,99.6
2016-05-24T01:37:17.917Z,99.7
2016-05-24T01:37:27.902Z,99.9
2016-05-24T01:37:37.902Z,99.4
2016-05-24T01:37:47.886Z,99.7
2016-05-24T01:37:57.870Z,99.7
2016-05-24T01:38:07.855Z,99.7
2016-05-24T01:38:17.858Z,99.8
2016-05-24T01:38:27.842Z,99.9
2016-05-24T01:38:37.826Z,100
2016-05-24T01:38:47.811Z,100
2016-05-24T01:38:57.811Z,99.9
2016-05-24T01:39:07.780Z,100
2016-05-24T01:39:17.782Z,99.7
2016-05-24T01:39:27.766Z,99.4
2016-05-24T01:39:37.750Z,99.5
2016-05-24T01:39:47.735Z,99.5
2016-05-24T01:39:57.735Z,99.7
2016-05-24T01:40:07.719Z,99.7
2016-05-24T01:40:17.706Z,99.8
2016-05-24T01:40:27.691Z,99.5
2016-05-24T01:40:37.675Z,100
2016-05-24T01:40:47.675Z,100
2016-05-24T01:40:57.660Z,100
2016-05-24T01:41:07.644Z,100
2016-05-24T01:41:17.630Z,100
2016-05-24T01:41:27.615Z,100
2016-05-24T01:41:37.615Z,100
2016-05-24T01:41:47.599Z,100
2016-05-24T01:41:57.583Z,100
2016-05-24T01:42:07.583Z,100
2016-05-24T01:42:17.555Z,100
2016-05-24T01:42:27.555Z,100
2016-05-24T01:42:37.540Z,100
2016-05-24T01:42:47.524Z,100
2016-05-24T01:42:57.540Z,99.8
2016-05-24T01:43:07.508Z,99.8
2016-05-24T01:43:17.495Z,99
2016-05-24T01:43:27.479Z,99.2
2016-05-24T01:43:37.463Z,99.2
2016-05-24T01:43:47.448Z,98.9
2016-05-24T01:43:57.448Z,99.3
2016-05-24T01:44:07.432Z,99.2
2016-05-24T01:44:17.421Z,99
2016-05-24T01:44:27.639Z,99
2016-05-24T01:44:37.436Z,99.2
2016-05-24T01:44:47.389Z,99.1
2016-05-24T01:44:57.452Z,99.4
2016-05-24T01:45:07.358Z,99.4
2016-05-24T01:45:17.344Z,98.7
2016-05-24T01:45:27.344Z,99.6
2016-05-24T01:45:37.329Z,99.4
2016-05-24T01:45:47.313Z,99.6
2016-05-24T01:45:57.298Z,99.1
2016-05-24T01:46:07.282Z,99.3
2016-05-24T01:46:17.285Z,99.1
2016-05-24T01:46:27.269Z,99
2016-05-24T01:46:37.254Z,99.6
2016-05-24T01:46:47.238Z,99.6
2016-05-24T01:46:57.222Z,99.9
2016-05-24T01:47:07.222Z,99.6
2016-05-24T01:47:17.209Z,99.7
2016-05-24T01:47:27.193Z,99.1
2016-05-24T01:47:37.178Z,99.1
2016-05-24T01:47:47.162Z,99.1
2016-05-24T01:47:57.146Z,99.6
2016-05-24T01:48:07.146Z,99.3
2016-05-24T01:48:17.134Z,99.8
2016-05-24T01:48:27.118Z,100
2016-05-24T01:48:37.118Z,99.6
2016-05-24T01:48:47.102Z,99.9
2016-05-24T01:48:57.087Z,100
2016-05-24T01:49:07.071Z,99.7
2016-05-24T01:49:17.074Z,99.6
2016-05-24T01:49:27.059Z,99.2
2016-05-24T01:49:37.043Z,99.6
2016-05-24T01:49:47.027Z,99.8
2016-05-24T01:49:57.012Z,100
2016-05-24T01:50:06.996Z,100
2016-05-24T01:50:16.999Z,100
2016-05-24T01:50:26.983Z,100
2016-05-24T01:50:36.968Z,100
2016-05-24T01:50:46.952Z,100
2016-05-24T01:50:56.937Z,99.7
2016-05-24T01:51:06.937Z,99.5
2016-05-24T01:51:16.923Z,100
2016-05-24T01:51:26.907Z,99.1
2016-05-24T01:51:36.892Z,99.4
2016-05-24T01:51:46.892Z,99.7
2016-05-24T01:51:56.876Z,99.7
2016-05-24T01:52:06.860Z,99.4
2016-05-24T01:52:16.848Z,99.3
2016-05-24T01:52:26.832Z,99.4
2016-05-24T01:52:36.832Z,99
2016-05-24T01:52:46.817Z,98.8
2016-05-24T01:52:56.832Z,99.1
2016-05-24T01:53:06.785Z,98.4
2016-05-24T01:53:16.772Z,99.2
2016-05-24T01:53:26.772Z,99.1
2016-05-24T01:53:36.756Z,98.6
2016-05-24T01:53:46.740Z,98.9
2016-05-24T01:53:56.740Z,98.7
2016-05-24T01:54:06.709Z,98.3
2016-05-24T01:54:16.712Z,98.6
2016-05-24T01:54:26.697Z,98.5
2016-05-24T01:54:36.681Z,98.7
2016-05-24T01:54:46.665Z,98.5
2016-05-24T01:54:56.650Z,98.2
2016-05-24T01:55:06.650Z,98.1
2016-05-24T01:55:16.637Z,98.5
2016-05-24T01:55:26.621Z,98.1
2016-05-24T01:55:36.606Z,98.3
2016-05-24T01:55:46.606Z,98.1
2016-05-24T01:55:56.590Z,98.1
2016-05-24T01:56:06.575Z,98.5
2016-05-24T01:56:16.562Z,98.2
2016-05-24T01:56:26.546Z,98.4
2016-05-24T01:56:36.546Z,98.7
2016-05-24T01:56:46.531Z,98.6
2016-05-24T01:56:56.515Z,98.7
2016-05-24T01:57:06.499Z,98.3
2016-05-24T01:57:16.501Z,98.7
2016-05-24T01:57:26.486Z,98.3
2016-05-24T01:57:36.470Z,98.4
2016-05-24T01:57:46.455Z,98.6
2016-05-24T01:57:56.439Z,99
2016-05-24T01:58:06.423Z,99.2
2016-05-24T01:58:16.426Z,99
2016-05-24T01:58:26.411Z,99.3
2016-05-24T01:58:36.395Z,99.5
2016-05-24T01:58:46.379Z,99.2
2016-05-24T01:58:56.379Z,99.1
2016-05-24T01:59:06.364Z,99.1
2016-05-24T01:59:16.367Z,98.7
2016-05-24T01:59:26.336Z,99
2016-05-24T01:59:36.320Z,99.1
2016-05-24T01:59:46.757Z,99.2
2016-05-24T01:59:56.320Z,98.6
2016-05-24T02:00:06.304Z,98.6
2016-05-24T02:00:16.385Z,98.5
2016-05-24T02:00:26.276Z,98.5
2016-05-24T02:00:36.260Z,97.8
2016-05-24T02:00:46.245Z,97.3
2016-05-24T02:00:56.229Z,97.3
2016-05-24T02:01:06.214Z,96.9
2016-05-24T02:01:16.216Z,96.8
2016-05-24T02:01:26.200Z,97.1
2016-05-24T02:01:36.184Z,96.8
2016-05-24T02:01:46.169Z,96.8
2016-05-24T02:01:56.169Z,97.4
2016-05-24T02:02:06.153Z,97.9
2016-05-24T02:02:16.140Z,97.6
2016-05-24T02:02:26.344Z,97.6
2016-05-24T02:02:36.109Z,97.6
2016-05-24T02:02:46.094Z,97.3
2016-05-24T02:02:56.094Z,97.3
2016-05-24T02:03:06.078Z,96.7
2016-05-24T02:03:16.080Z,96.9
2016-05-24T02:03:26.049Z,96.9
2016-05-24T02:03:36.049Z,97.2
2016-05-24T02:03:46.033Z,96.6
2016-05-24T02:03:56.017Z,96.8
2016-05-24T02:04:06.002Z,96.9
2016-05-24T02:04:15.989Z,96.8
2016-05-24T02:04:25.989Z,97.5
2016-05-24T02:04:35.974Z,97.7
2016-05-24T02:04:45.958Z,98
2016-05-24T02:04:55.942Z,98.1
2016-05-24T02:05:05.942Z,98.2
2016-05-24T02:05:15.929Z,98.4
2016-05-24T02:05:25.913Z,98.5
2016-05-24T02:05:35.897Z,98.4
2016-05-24T02:05:45.897Z,98.2
2016-05-24T02:05:55.882Z,98.6
2016-05-24T02:06:05.866Z,98.5
2016-05-24T02:06:15.855Z,98
2016-05-24T02:06:25.839Z,98.1
2016-05-24T02:06:35.823Z,97.3
2016-05-24T02:06:45.808Z,97.8
2016-05-24T02:06:55.808Z,97.2
2016-05-24T02:07:05.792Z,97
2016-05-24T02:07:15.795Z,96.6
2016-05-24T02:07:25.764Z,96.9
2016-05-24T02:07:35.764Z,96.9
2016-05-24T02:07:45.748Z,97
2016-05-24T02:07:55.733Z,96.5
2016-05-24T02:08:05.717Z,96.4
2016-05-24T02:08:15.703Z,96.5
2016-05-24T02:08:25.703Z,96.5
2016-05-24T02:08:35.688Z,95.9
2016-05-24T02:08:45.672Z,95.7
2016-05-24T02:08:55.656Z,95.8
2016-05-24T02:09:05.641Z,96.3
2016-05-24T02:09:15.643Z,96.4
2016-05-24T02:09:25.627Z,96.5
2016-05-24T02:09:35.627Z,96.1
2016-05-24T02:09:45.596Z,96
2016-05-24T02:09:55.596Z,96.7
2016-05-24T02:10:05.580Z,96.4
2016-05-24T02:10:15.568Z,97
2016-05-24T02:10:25.552Z,96.4
2016-05-24T02:10:35.536Z,96.2
2016-05-24T02:10:45.521Z,96.1
2016-05-24T02:10:55.521Z,96.3
2016-05-24T02:11:05.505Z,96.2
2016-05-24T02:11:15.493Z,96.4
2016-05-24T02:11:25.477Z,96.3
2016-05-24T02:11:35.477Z,96.2
2016-05-24T02:11:45.461Z,96.1
2016-05-24T02:11:55.446Z,96.4
2016-05-24T02:12:05.446Z,96.7
2016-05-24T02:12:15.433Z,96.7
2016-05-24T02:12:25.417Z,97.1
2016-05-24T02:12:35.402Z,96.8
2016-05-24T02:12:45.386Z,96.9
2016-05-24T02:12:55.386Z,96.9
2016-05-24T02:13:05.386Z,97.1
2016-05-24T02:13:15.358Z,97.1
2016-05-24T02:13:25.342Z,97.7
2016-05-24T02:13:35.327Z,97.1
2016-05-24T02:13:45.311Z,97.4
2016-05-24T02:13:55.311Z,97.8
2016-05-24T02:14:05.295Z,97.5
2016-05-24T02:14:15.594Z,98.1
2016-05-24T02:14:25.266Z,97.9
2016-05-24T02:14:35.251Z,98.5
2016-05-24T02:14:45.251Z,98.2
2016-05-24T02:14:55.235Z,98.3
2016-05-24T02:15:05.219Z,98.3
2016-05-24T02:15:15.207Z,98.7
2016-05-24T02:15:25.207Z,98.7
2016-05-24T02:15:35.191Z,98.4
2016-05-24T02:15:45.175Z,99.1
2016-05-24T02:15:55.160Z,99.2
2016-05-24T02:16:05.144Z,99.3
2016-05-24T02:16:15.146Z,98.9